Terminal Aerodrome Forecast
Issued by NWS

Home | Current Version | Previous Version | Text Only | Print | Product List | Glossary On
Versions: 1 2 3 4 5 6 7 8 9 10 11 12 13 14 15 16 17 18 19 20 21 22 23 24 25 26 27 28 29 30 31 32 33 34 35 36 37 38 39 40 41 42 43
000
FTAK31 PANC 070302 AAA
TAFAIL
TAF AMD
PAIL 070302Z 0703/0724 12011KT P6SM VCSH SCT050 OVC070
     FM070500 12011KT 5SM -SN OVC030
     FM070600 14016G25KT 2SM -SN BR OVC015
     FM071200 20010G18KT 3SM -SNRA BR BKN015
     FM072000 25018G25KT P6SM VCSH BKN035=

USA.gov is the U.S. government's official web portal to all federal, state and local government web resources and services.